Time;durP1;ratioP1;P1;durP2;ratioP2;P2;SDS_P1;SDS_P2;PMS_P1;PMS_P2;Temp;Humidity;BMP_temperature;BMP_pressure;BME280_temperature;BME280_humidity;BME280_pressure;Samples;Min_cycle;Max_cycle;Signal;HPM_P1;HPM_P2
2023/02/08 00:00:53;;;;;;;;;;;4.00;71.50;;;2.71;55.93;102860.88;5045277;28;19962;-79
2023/02/08 00:03:21;;;;;;;;;;;4.00;71.40;;;2.68;56.06;102857.59;5049839;28;20396;-79
2023/02/08 00:05:48;;;;;;;;;;;4.00;71.30;;;2.63;56.28;102859.69;5049447;28;19987;-79
2023/02/08 00:08:16;;;;;;;;;;;4.00;71.40;;;2.61;56.21;102851.88;5043370;28;20399;-79
2023/02/08 00:10:44;;;;;;;;;;;4.00;71.50;;;2.63;56.15;102846.50;5049836;28;19936;-79
2023/02/08 00:13:10;;;;;;;;;;;4.10;71.50;;;2.63;56.14;102849.97;5047609;28;20679;-79
2023/02/08 00:15:41;;;;;;;;;;;4.00;71.30;;;2.62;55.97;102847.47;5031174;28;19933;-79
2023/02/08 00:18:08;;;;;;;;;;;4.00;71.30;;;2.58;56.01;102847.66;5046418;28;19991;-79
2023/02/08 00:20:35;;;;;;;;;;;3.90;71.30;;;2.59;56.20;102851.16;5023553;28;20478;-79
2023/02/08 00:23:02;;;;;;;;;;;4.10;71.60;;;2.60;56.04;102849.38;5049602;28;19932;-79
2023/02/08 00:25:30;;;;;;;;;;;3.90;71.50;;;2.62;56.08;102852.72;5048903;28;20286;-79
2023/02/08 00:27:57;;;;;;;;;;;3.90;71.50;;;2.61;55.97;102845.78;5044909;28;20401;-79
2023/02/08 00:30:24;;;;;;;;;;;3.90;71.30;;;2.55;56.10;102839.97;5031139;28;19935;-79
2023/02/08 00:32:51;;;;;;;;;;;3.90;71.40;;;2.51;56.13;102845.53;5038500;28;19936;-79
2023/02/08 00:35:18;;;;;;;;;;;3.90;71.60;;;2.55;56.51;102844.41;5031341;28;20467;-80
2023/02/08 00:37:45;;;;;;;;;;;3.90;71.70;;;2.56;56.23;102835.53;5046378;28;19936;-79
2023/02/08 00:40:12;;;;;;;;;;;3.90;71.50;;;2.51;55.99;102835.00;5026782;28;20371;-79
2023/02/08 00:42:40;;;;;;;;;;;3.90;71.50;;;2.49;56.08;102831.59;5030641;28;19929;-79
2023/02/08 00:45:09;;;;;;;;;;;3.80;71.50;;;2.46;56.30;102823.91;5037591;28;19976;-79
2023/02/08 00:47:36;;;;;;;;;;;3.80;71.50;;;2.45;56.07;102830.13;5027093;28;19936;-79
2023/02/08 00:50:03;;;;;;;;;;;3.80;71.40;;;2.43;56.28;102827.59;5046181;28;19929;-79
2023/02/08 00:52:30;;;;;;;;;;;3.80;71.40;;;2.41;56.09;102824.22;5024274;28;19929;-79
2023/02/08 00:54:57;;;;;;;;;;;3.80;71.40;;;2.43;56.12;102818.84;5030678;28;20277;-79
2023/02/08 00:57:24;;;;;;;;;;;3.80;71.40;;;2.42;56.09;102818.00;5017668;28;19929;-79
2023/02/08 00:59:52;;;;;;;;;;;3.80;71.30;;;2.45;56.10;102816.97;5047879;28;19929;-79
2023/02/08 01:02:19;;;;;;;;;;;3.80;71.30;;;2.42;55.90;102810.09;5043479;28;20017;-79
2023/02/08 01:04:46;;;;;;;;;;;3.80;71.10;;;2.39;55.96;102812.97;5027846;28;19951;-79
2023/02/08 01:07:13;;;;;;;;;;;3.80;71.10;;;2.35;56.01;102816.72;5048199;28;20404;-79
2023/02/08 01:09:40;;;;;;;;;;;3.70;71.10;;;2.32;55.92;102812.50;5047785;28;19925;-79
2023/02/08 01:12:07;;;;;;;;;;;3.70;71.20;;;2.30;56.16;102817.03;5048636;28;19943;-79
2023/02/08 01:14:34;;;;;;;;;;;3.70;71.40;;;2.32;55.93;102819.53;5021639;28;20328;-80
2023/02/08 01:17:03;;;;;;;;;;;3.70;71.30;;;2.32;56.06;102819.53;5047268;28;19964;-79
2023/02/08 01:19:30;;;;;;;;;;;3.70;71.30;;;2.32;56.04;102815.13;5024678;28;19928;-79
2023/02/08 01:21:56;;;;;;;;;;;3.70;71.30;;;2.33;55.96;102814.16;5047300;28;20355;-79
2023/02/08 01:24:23;;;;;;;;;;;3.70;71.30;;;2.30;55.83;102814.38;5049155;28;19928;-79
2023/02/08 01:26:51;;;;;;;;;;;3.70;71.10;;;2.26;55.99;102820.78;5026702;28;20670;-79
2023/02/08 01:29:18;;;;;;;;;;;3.70;71.20;;;2.26;56.01;102822.59;5028723;28;19925;-79
2023/02/08 01:31:45;;;;;;;;;;;3.60;71.20;;;2.26;56.22;102814.69;5030169;28;19929;-79
2023/02/08 01:34:14;;;;;;;;;;;3.60;71.20;;;2.26;56.12;102818.16;5046008;28;20420;-80
2023/02/08 01:36:43;;;;;;;;;;;3.60;71.10;;;2.25;56.04;102810.38;5045861;28;19925;-79
2023/02/08 01:39:11;;;;;;;;;;;3.60;71.10;;;2.23;56.04;102814.88;5023488;28;20309;-80
2023/02/08 01:41:39;;;;;;;;;;;3.60;71.10;;;2.21;56.11;102811.50;5028962;28;20300;-80
2023/02/08 01:44:29;;;;;;;;;;;3.60;71.30;;;2.22;56.01;102818.44;5034187;28;19928;-80
2023/02/08 01:46:56;;;;;;;;;;;3.60;71.30;;;2.23;56.13;102805.19;5051181;28;19999;-80
2023/02/08 01:49:27;;;;;;;;;;;3.60;71.30;;;2.23;55.91;102805.19;5024949;28;19932;-79
2023/02/08 01:51:58;;;;;;;;;;;3.60;71.20;;;2.22;55.93;102806.13;5033698;28;19935;-80
2023/02/08 01:54:31;;;;;;;;;;;3.60;71.20;;;2.18;56.00;102801.16;5025665;28;20039;-79
2023/02/08 01:56:58;;;;;;;;;;;3.60;71.20;;;2.17;56.12;102794.22;5022136;28;19972;-80
2023/02/08 01:59:27;;;;;;;;;;;3.60;71.30;;;2.14;56.27;102792.59;5032633;28;19928;-80
2023/02/08 02:01:56;;;;;;;;;;;3.50;71.30;;;2.14;56.30;102792.59;5033400;28;19939;-79
2023/02/08 02:04:23;;;;;;;;;;;3.50;71.50;;;2.17;56.14;102795.06;5052336;28;19924;-79
2023/02/08 02:06:54;;;;;;;;;;;3.50;71.40;;;2.18;55.98;102788.84;5032903;28;19936;-79
2023/02/08 02:09:24;;;;;;;;;;;3.50;71.30;;;2.15;55.82;102782.91;5025844;28;19926;-79
2023/02/08 02:11:53;;;;;;;;;;;3.50;71.20;;;2.12;55.85;102785.78;5050900;28;19935;-79
2023/02/08 02:14:21;;;;;;;;;;;3.50;71.30;;;2.10;56.02;102785.00;5033649;28;19964;-79
2023/02/08 02:16:48;;;;;;;;;;;3.50;71.30;;;2.08;55.94;102789.53;5032784;28;19925;-79
2023/02/08 02:19:21;;;;;;;;;;;3.50;71.30;;;2.06;56.03;102787.00;5047126;28;19929;-79
2023/02/08 02:22:02;;;;;;;;;;;3.50;71.40;;;2.09;56.15;102796.47;5032129;28;20364;-79
2023/02/08 02:24:59;;;;;;;;;;;3.50;71.40;;;2.09;56.10;102797.31;5033588;28;19928;-80
2023/02/08 02:27:34;;;;;;;;;;;3.50;71.40;;;2.07;56.00;102793.97;5031024;28;20461;-80
2023/02/08 02:30:54;;;;;;;;;;;3.50;71.30;;;2.05;56.07;102782.69;5032631;28;19925;-79
2023/02/08 02:33:39;;;;;;;;;;;3.40;71.10;;;2.02;55.75;102778.47;5015290;28;20473;-79
2023/02/08 02:36:14;;;;;;;;;;;3.40;71.10;;;2.04;55.94;102778.34;5037653;28;19925;-79
2023/02/08 02:38:49;;;;;;;;;;;3.40;71.20;;;2.02;55.90;102775.84;5047685;28;19924;-79
2023/02/08 02:43:40;;;;;;;;;;;3.40;71.10;;;2.00;55.81;102776.84;5050417;28;19933;-79
2023/02/08 02:44:13;;;;;;;;;;;3.40;71.10;;;1.98;55.88;102774.34;5030862;28;19929;-80
2023/02/08 02:46:44;;;;;;;;;;;3.40;71.10;;;1.96;56.04;102768.34;5050081;28;19925;-79
2023/02/08 02:49:17;;;;;;;;;;;3.60;71.30;;;1.97;56.13;102775.28;5024338;28;19925;-79
2023/02/08 02:51:48;;;;;;;;;;;3.40;71.50;;;1.97;55.83;102761.28;5048276;28;19929;-79
2023/02/08 02:54:19;;;;;;;;;;;3.30;71.30;;;1.96;56.14;102765.72;5044835;28;19929;-80
2023/02/08 02:56:48;;;;;;;;;;;3.30;71.20;;;1.96;55.94;102765.72;5047586;28;20015;-79
2023/02/08 02:59:16;;;;;;;;;;;3.30;71.30;;;1.93;56.09;102758.00;5035622;28;20444;-79
2023/02/08 03:01:44;;;;;;;;;;;3.30;71.30;;;1.95;56.04;102758.75;5048995;28;20393;-79
2023/02/08 03:04:18;;;;;;;;;;;3.30;71.30;;;1.96;55.81;102757.81;5050792;28;19924;-79
2023/02/08 03:07:00;;;;;;;;;;;3.30;71.20;;;1.95;55.69;102764.03;5048440;28;20316;-79
2023/02/08 03:09:55;;;;;;;;;;;3.30;71.00;;;1.87;55.89;102766.28;5044710;28;19929;-79
2023/02/08 03:12:35;;;;;;;;;;;3.30;71.10;;;1.86;56.11;102769.88;5040366;28;19925;-79
2023/02/08 03:15:11;;;;;;;;;;;3.30;71.30;;;1.86;55.87;102769.88;5043009;28;19936;-79
2023/02/08 03:17:55;;;;;;;;;;;3.30;71.20;;;1.87;56.03;102779.44;5049720;28;19929;-79
2023/02/08 03:20:25;;;;;;;;;;;3.30;71.20;;;1.88;55.79;102773.22;5044375;28;19925;-79
2023/02/08 03:23:01;;;;;;;;;;;3.30;71.10;;;1.85;55.90;102770.78;5032387;28;19929;-80
2023/02/08 03:25:34;;;;;;;;;;;3.30;71.00;;;1.85;55.80;102773.41;5044764;28;19928;-79
2023/02/08 03:28:05;;;;;;;;;;;3.20;70.90;;;1.87;55.73;102783.88;5045067;28;19928;-79
2023/02/08 03:30:38;;;;;;;;;;;3.20;71.00;;;1.86;55.89;102779.56;5049725;28;19928;-79
2023/02/08 03:33:09;;;;;;;;;;;3.20;71.00;;;1.85;55.91;102783.09;5048541;28;20599;-79
2023/02/08 03:35:41;;;;;;;;;;;3.20;71.10;;;1.82;55.91;102781.53;5043880;28;19928;-79
2023/02/08 03:38:11;;;;;;;;;;;3.20;71.10;;;1.81;56.02;102777.22;5046221;28;19947;-79
2023/02/08 03:40:40;;;;;;;;;;;3.20;71.10;;;1.80;55.94;102780.75;5025981;28;20362;-79
2023/02/08 03:43:10;;;;;;;;;;;3.20;71.10;;;1.79;55.95;102779.06;5050158;28;19929;-79
2023/02/08 03:45:40;;;;;;;;;;;3.30;71.20;;;1.77;55.83;102781.81;5043458;28;20002;-79
2023/02/08 03:48:09;;;;;;;;;;;3.10;71.10;;;1.76;55.99;102784.56;5043646;28;20385;-79
2023/02/08 03:50:39;;;;;;;;;;;3.20;71.10;;;1.77;55.75;102775.72;5041750;28;19928;-79
2023/02/08 03:53:08;;;;;;;;;;;3.10;71.10;;;1.76;55.76;102771.41;5043386;28;19935;-79
2023/02/08 03:55:37;;;;;;;;;;;3.10;70.90;;;1.74;55.63;102765.38;5050148;28;19935;-79
2023/02/08 03:58:08;;;;;;;;;;;3.10;70.90;;;1.73;55.67;102776.84;5045949;28;19938;-79
2023/02/08 04:00:40;;;;;;;;;;;3.10;70.90;;;1.71;55.74;102776.09;5049263;28;19925;-79
2023/02/08 04:03:13;;;;;;;;;;;3.10;71.00;;;1.69;55.97;102784.06;5031538;28;19928;-79
2023/02/08 04:05:41;;;;;;;;;;;3.10;71.10;;;1.68;56.01;102786.81;5049716;28;19925;-79
2023/02/08 04:08:08;;;;;;;;;;;3.10;71.20;;;1.67;56.03;102785.97;5045393;28;19939;-79
2023/02/08 04:10:35;;;;;;;;;;;3.00;71.10;;;1.70;55.87;102788.38;5031240;28;19928;-79
2023/02/08 04:13:03;;;;;;;;;;;3.00;71.10;;;1.69;55.73;102783.22;5049655;28;20023;-79
2023/02/08 04:15:30;;;;;;;;;;;3.00;71.00;;;1.66;55.95;102778.16;5049835;28;20347;-79
2023/02/08 04:17:57;;;;;;;;;;;3.00;71.00;;;1.63;55.95;102781.81;5043732;28;19936;-79
2023/02/08 04:20:24;;;;;;;;;;;3.00;71.10;;;1.65;56.03;102782.56;5049735;28;19929;-79
2023/02/08 04:22:52;;;;;;;;;;;3.20;71.10;;;1.63;55.87;102783.63;5045444;28;19933;-79
2023/02/08 04:25:19;;;;;;;;;;;3.00;71.10;;;1.65;55.86;102782.56;5044902;28;19935;-78
2023/02/08 04:27:46;;;;;;;;;;;3.00;71.10;;;1.65;55.74;102790.47;5046372;28;19928;-79
2023/02/08 04:30:13;;;;;;;;;;;3.00;71.10;;;1.61;55.77;102790.75;5043330;28;20388;-79
2023/02/08 04:32:40;;;;;;;;;;;3.00;71.00;;;1.60;56.01;102782.00;5041850;28;20503;-79
2023/02/08 04:35:08;;;;;;;;;;;3.00;71.10;;;1.62;55.87;102792.47;5049247;28;20448;-79
2023/02/08 04:37:34;;;;;;;;;;;3.00;71.10;;;1.61;55.74;102790.75;5038804;28;19936;-79
2023/02/08 04:40:03;;;;;;;;;;;3.10;71.00;;;1.58;55.83;102794.41;5058192;22;19925;-76
2023/02/08 04:42:30;;;;;;;;;;;3.00;70.90;;;1.55;55.77;102790.19;5024427;28;20301;-76
2023/02/08 04:45:00;;;;;;;;;;;2.90;71.00;;;1.57;55.88;102799.78;5028078;28;20385;-77
2023/02/08 04:47:27;;;;;;;;;;;2.90;71.00;;;1.54;55.95;102793.75;5022759;28;19936;-81
2023/02/08 04:49:53;;;;;;;;;;;2.90;71.10;;;1.53;55.96;102797.34;5009700;28;19945;-81
2023/02/08 04:52:20;;;;;;;;;;;3.00;71.10;;;1.54;55.89;102800.81;5025095;28;19925;-80
2023/02/08 04:54:47;;;;;;;;;;;2.90;71.10;;;1.52;55.82;102800.06;5010207;28;20381;-81
2023/02/08 04:57:16;;;;;;;;;;;2.90;71.00;;;1.51;55.78;102791.34;5011036;28;19929;-79
2023/02/08 04:59:43;;;;;;;;;;;2.90;70.90;;;1.51;55.86;102790.47;5029135;28;19929;-80
2023/02/08 05:02:09;;;;;;;;;;;3.10;71.10;;;1.49;55.76;102789.72;5026096;28;19936;-80
2023/02/08 05:04:36;;;;;;;;;;;2.90;70.90;;;1.50;55.64;102797.50;5015700;28;19929;-80
2023/02/08 05:07:03;;;;;;;;;;;2.90;70.90;;;1.48;55.86;102793.31;5027877;28;19932;-79
2023/02/08 05:09:30;;;;;;;;;;;2.90;71.00;;;1.49;55.85;102790.56;5028119;28;20397;-78
2023/02/08 05:11:57;;;;;;;;;;;2.90;71.10;;;1.50;55.92;102792.25;5028943;28;19929;-79
2023/02/08 05:14:26;;;;;;;;;;;2.90;71.20;;;1.50;55.81;102797.50;5025345;28;19929;-78
2023/02/08 05:16:52;;;;;;;;;;;2.90;71.10;;;1.48;55.82;102796.78;5026672;28;20401;-78
2023/02/08 05:19:19;;;;;;;;;;;2.90;71.10;;;1.47;55.76;102799.50;5032341;28;19937;-78
2023/02/08 05:21:46;;;;;;;;;;;2.80;70.90;;;1.47;55.75;102789.84;5033135;28;19936;-78
2023/02/08 05:24:13;;;;;;;;;;;2.90;71.20;;;1.50;55.63;102783.53;5015633;28;19925;-78
2023/02/08 05:26:41;;;;;;;;;;;2.80;70.90;;;1.47;55.86;102792.47;5025024;28;19933;-78
2023/02/08 05:29:08;;;;;;;;;;;2.80;70.90;;;1.46;55.82;102789.91;5023197;28;20390;-78
2023/02/08 05:31:36;;;;;;;;;;;2.80;71.00;;;1.46;55.84;102790.75;5023837;28;19937;-79
2023/02/08 05:34:03;;;;;;;;;;;2.80;71.10;;;1.44;55.97;102792.63;5031340;28;19928;-78
2023/02/08 05:36:30;;;;;;;;;;;2.80;71.00;;;1.43;55.88;102792.75;5030566;28;19933;-79
2023/02/08 05:38:57;;;;;;;;;;;2.80;71.00;;;1.44;55.80;102804.94;5031897;28;19975;-78
2023/02/08 05:41:24;;;;;;;;;;;2.80;70.90;;;1.43;55.58;102798.84;5030185;28;19929;-78
2023/02/08 05:43:51;;;;;;;;;;;2.80;70.90;;;1.44;55.65;102804.94;5031986;28;19925;-78
2023/02/08 05:46:18;;;;;;;;;;;2.80;70.80;;;1.44;55.50;102803.16;5028412;28;19925;-78
2023/02/08 05:48:46;;;;;;;;;;;2.80;70.70;;;1.45;55.58;102802.22;5031854;28;19935;-78
2023/02/08 05:51:13;;;;;;;;;;;2.80;70.90;;;1.45;55.49;102804.84;5031227;28;19932;-78
2023/02/08 05:53:42;;;;;;;;;;;2.80;70.50;;;1.43;55.50;102809.34;5032311;28;20393;-78
2023/02/08 05:56:09;;;;;;;;;;;2.90;70.80;;;1.46;55.59;102810.94;5027797;28;19979;-78
2023/02/08 05:58:36;;;;;;;;;;;2.80;70.70;;;1.44;55.37;102805.78;5012563;28;19932;-78
2023/02/08 06:01:08;;;;;;;;;;;2.80;70.50;;;1.48;55.61;102811.72;5032165;28;19936;-78
2023/02/08 06:03:35;;;;;;;;;;;2.80;70.80;;;1.46;55.40;102809.16;5030826;28;19933;-78
2023/02/08 06:06:04;;;;;;;;;;;2.80;70.60;;;1.44;55.42;102812.84;5013104;28;19929;-77
2023/02/08 06:08:31;;;;;;;;;;;2.80;70.50;;;1.44;55.64;102812.84;5031552;28;20305;-79
2023/02/08 06:10:59;;;;;;;;;;;2.80;70.70;;;1.44;55.59;102815.47;5031433;28;19928;-78
2023/02/08 06:13:28;;;;;;;;;;;2.80;70.70;;;1.45;55.49;102814.50;5027826;28;19933;-78
2023/02/08 06:15:55;;;;;;;;;;;2.80;70.60;;;1.46;55.52;102811.78;5031393;28;20405;-81
2023/02/08 06:18:22;;;;;;;;;;;2.80;70.60;;;1.43;55.29;102811.16;5031823;28;19932;-79
2023/02/08 06:20:51;;;;;;;;;;;2.80;70.50;;;1.39;55.42;102823.63;5029099;28;19929;-79
2023/02/08 06:23:20;;;;;;;;;;;2.80;70.50;;;1.35;55.45;102816.84;5027873;28;19933;-79
2023/02/08 06:25:47;;;;;;;;;;;2.80;70.60;;;1.34;55.53;102814.34;5013680;28;19925;-79
2023/02/08 06:28:14;;;;;;;;;;;2.70;70.60;;;1.35;55.40;102816.84;5014529;28;19936;-79
2023/02/08 06:30:41;;;;;;;;;;;2.70;70.60;;;1.36;55.21;102810.66;5017523;28;19933;-79
2023/02/08 06:33:08;;;;;;;;;;;2.70;70.40;;;1.32;55.26;102803.91;5024399;28;19935;-78
2023/02/08 06:35:35;;;;;;;;;;;2.70;70.50;;;1.31;55.42;102804.00;5030963;28;20017;-79
2023/02/08 06:38:02;;;;;;;;;;;2.70;70.50;;;1.36;55.29;102801.94;5023806;28;19936;-79
2023/02/08 06:40:31;;;;;;;;;;;2.70;70.60;;;1.33;55.07;102800.34;5028740;28;19925;-83
2023/02/08 06:42:57;;;;;;;;;;;2.70;70.40;;;1.31;55.31;102798.72;5023618;28;19937;-79
2023/02/08 06:45:24;;;;;;;;;;;2.70;70.50;;;1.26;55.44;102802.47;5029839;28;19925;-79
2023/02/08 06:47:51;;;;;;;;;;;2.70;70.50;;;1.24;55.49;102793.00;5026297;28;19929;-79
2023/02/08 06:50:18;;;;;;;;;;;2.60;70.50;;;1.23;55.50;102792.19;5031616;28;19952;-79
2023/02/08 06:52:46;;;;;;;;;;;2.60;70.50;;;1.21;55.44;102796.66;5028859;28;19929;-79
2023/02/08 06:55:13;;;;;;;;;;;2.60;70.50;;;1.19;55.34;102801.19;5027984;28;19929;-79
2023/02/08 06:57:42;;;;;;;;;;;2.60;70.60;;;1.17;55.42;102791.69;5029203;28;19968;-79
2023/02/08 07:00:10;;;;;;;;;;;2.60;70.80;;;1.18;55.53;102794.25;5011750;28;19941;-79
2023/02/08 07:02:37;;;;;;;;;;;2.60;70.80;;;1.18;55.49;102788.13;5029917;28;19925;-79
2023/02/08 07:05:04;;;;;;;;;;;2.60;70.70;;;1.18;55.57;102793.41;5028273;28;20020;-79
2023/02/08 07:07:32;;;;;;;;;;;2.60;70.90;;;1.21;55.66;102785.31;5032104;28;19940;-79
2023/02/08 07:09:59;;;;;;;;;;;2.60;70.90;;;1.21;55.64;102785.31;5028908;28;20678;-78
2023/02/08 07:12:26;;;;;;;;;;;2.60;70.90;;;1.20;55.57;102783.63;5029444;28;19933;-79
2023/02/08 07:14:54;;;;;;;;;;;2.60;70.90;;;1.19;55.80;102789.81;5028522;28;20292;-79
2023/02/08 07:17:21;;;;;;;;;;;2.60;71.10;;;1.19;55.83;102779.31;5028369;28;19933;-79
2023/02/08 07:19:49;;;;;;;;;;;2.60;71.20;;;1.20;55.63;102778.38;5029077;28;19936;-79
2023/02/08 07:22:19;;;;;;;;;;;2.60;71.10;;;1.21;55.75;102780.88;5027670;28;19929;-79
2023/02/08 07:24:46;;;;;;;;;;;2.60;71.10;;;1.19;55.79;102781.94;5025938;28;20017;-79
2023/02/08 07:27:13;;;;;;;;;;;2.60;71.10;;;1.20;55.84;102783.63;5027569;28;19983;-79
2023/02/08 07:29:40;;;;;;;;;;;2.60;71.30;;;1.21;55.99;102777.41;5009431;28;20305;-79
2023/02/08 07:32:12;;;;;;;;;;;2.60;71.30;;;1.22;56.05;102779.97;5032277;28;19939;-79
2023/02/08 07:34:40;;;;;;;;;;;2.60;71.40;;;1.20;56.03;102787.09;5025639;28;19936;-80
2023/02/08 07:37:07;;;;;;;;;;;2.60;71.50;;;1.22;56.11;102781.72;5024880;28;19925;-79
2023/02/08 07:39:34;;;;;;;;;;;2.60;71.70;;;1.23;56.40;102778.19;5026782;28;19944;-79
2023/02/08 07:42:01;;;;;;;;;;;2.60;71.80;;;1.22;56.47;102774.72;5025138;28;19936;-79
2023/02/08 07:44:36;;;;;;;;;;;2.60;72.20;;;1.26;56.77;102770.94;5010038;28;20401;-79
2023/02/08 07:47:03;;;;;;;;;;;2.60;72.30;;;1.28;56.86;102770.88;5027046;28;20015;-79
2023/02/08 07:49:31;;;;;;;;;;;2.60;72.40;;;1.29;57.08;102769.94;5029305;28;20298;-79
2023/02/08 07:51:58;;;;;;;;;;;2.60;72.50;;;1.31;57.05;102764.56;5028467;28;19972;-80
2023/02/08 07:54:26;;;;;;;;;;;2.60;72.70;;;1.29;57.27;102773.41;5028465;28;19925;-79
2023/02/08 07:56:52;;;;;;;;;;;2.70;72.90;;;1.31;57.67;102770.66;5026739;28;20389;-80
2023/02/08 07:59:19;;;;;;;;;;;2.70;73.10;;;1.34;57.42;102773.13;5024805;28;19936;-79
2023/02/08 08:01:46;;;;;;;;;;;2.70;73.10;;;1.33;57.76;102766.19;5028718;28;19936;-79
2023/02/08 08:04:13;;;;;;;;;;;2.70;73.30;;;1.35;57.74;102773.97;5024972;28;19935;-79
2023/02/08 08:06:42;;;;;;;;;;;2.70;73.50;;;1.39;58.19;102773.66;5007490;28;19925;-79
2023/02/08 08:09:08;;;;;;;;;;;2.70;73.80;;;1.44;58.18;102773.41;5025460;28;20011;-79
2023/02/08 08:11:41;;;;;;;;;;;2.70;73.90;;;1.44;58.43;102779.50;5029040;28;19929;-79
2023/02/08 08:14:13;;;;;;;;;;;2.70;74.30;;;1.46;58.49;102782.84;5024999;28;20024;-79
2023/02/08 08:16:52;;;;;;;;;;;2.80;74.30;;;1.49;58.65;102779.22;5020527;28;19936;-79
2023/02/08 08:19:25;;;;;;;;;;;2.80;74.40;;;1.49;58.58;102766.06;5028451;28;20300;-79
2023/02/08 08:21:56;;;;;;;;;;;2.80;74.50;;;1.50;58.91;102768.59;5024187;28;19933;-80
2023/02/08 09:09:48;;;;;;;;;;;3.00;77.00;;;1.95;60.33;102750.00;5024501;28;20071;-80
2023/02/08 09:12:17;;;;;;;;;;;3.10;76.80;;;2.00;60.01;102754.03;5028917;28;19936;-80
2023/02/08 09:14:44;;;;;;;;;;;3.10;76.60;;;2.01;59.83;102753.09;5033020;28;19935;-86
2023/02/08 09:17:11;;;;;;;;;;;3.10;76.50;;;2.04;59.45;102760.78;5031063;28;19936;-79
2023/02/08 09:23:46;;;;;;;;;;;3.10;76.20;;;2.11;59.70;102749.88;5023870;28;19927;-79
2023/02/08 09:30:02;;;;;;;;;;;3.20;76.60;;;2.23;59.77;102743.78;5029372;28;19932;-79
2023/02/08 09:32:38;;;;;;;;;;;3.30;76.60;;;2.27;59.88;102748.75;5024375;28;19932;-80
2023/02/08 09:35:06;;;;;;;;;;;3.40;76.60;;;2.27;59.15;102742.66;5019758;28;19936;-80
2023/02/08 09:37:33;;;;;;;;;;;3.40;75.80;;;2.28;58.85;102744.34;5021141;28;20388;-79
2023/02/08 09:40:00;;;;;;;;;;;3.50;75.50;;;2.33;58.70;102748.34;5023837;28;20378;-80
2023/02/08 09:42:50;;;;;;;;;;;3.50;75.20;;;2.40;58.82;102756.72;5021879;28;20379;-80
2023/02/08 09:45:38;;;;;;;;;;;3.50;75.40;;;2.45;58.76;102757.25;5025955;28;19936;-80
2023/02/08 09:48:14;;;;;;;;;;;3.60;75.30;;;2.48;58.60;102757.03;5030948;28;19929;-79
2023/02/08 09:50:42;;;;;;;;;;;3.60;75.10;;;2.49;57.43;102764.00;5026744;28;19929;-79
2023/02/08 09:53:13;;;;;;;;;;;3.60;73.90;;;2.50;58.00;102760.41;5026873;28;20262;-79
2023/02/08 09:55:46;;;;;;;;;;;3.70;74.30;;;2.56;57.88;102759.16;5028538;28;19935;-79
2023/02/08 09:58:21;;;;;;;;;;;3.70;74.10;;;2.59;56.79;102764.22;5022254;28;19975;-80
2023/02/08 10:00:51;;;;;;;;;;;3.80;73.00;;;2.62;56.74;102763.16;5024071;28;19935;-79
2023/02/08 10:03:34;;;;;;;;;;;3.90;73.00;;;2.64;55.11;102762.13;5018026;28;19929;-79
2023/02/08 10:06:02;;;;;;;;;;;3.80;71.30;;;2.64;52.95;102764.78;5019970;28;19951;-79
2023/02/08 10:08:30;;;;;;;;;;;3.80;68.50;;;2.61;51.74;102762.31;5032872;28;19925;-79
2023/02/08 10:11:05;;;;;;;;;;;3.80;67.50;;;2.64;51.25;102766.56;5028034;28;20399;-79
2023/02/08 10:13:55;;;;;;;;;;;3.80;66.30;;;2.64;49.97;102758.66;5018484;28;19925;-80
2023/02/08 10:16:40;;;;;;;;;;;3.80;65.60;;;2.66;50.71;102762.03;5029068;28;20570;-79
2023/02/08 10:19:14;;;;;;;;;;;3.90;66.40;;;2.72;49.68;102764.22;5032128;28;19956;-79
2023/02/08 10:21:55;;;;;;;;;;;3.90;64.40;;;2.73;49.65;102764.16;5016505;28;20025;-79
2023/02/08 10:24:41;;;;;;;;;;;4.00;64.80;;;2.74;48.02;102767.63;5016999;28;20009;-84
2023/02/08 10:27:14;;;;;;;;;;;3.90;62.70;;;2.78;48.07;102758.53;5027893;28;20021;-85
2023/02/08 10:30:01;;;;;;;;;;;4.10;63.00;;;2.78;47.15;102758.53;5027098;28;19929;-85
2023/02/08 10:32:44;;;;;;;;;;;3.90;61.50;;;2.78;47.65;102753.28;5025322;28;19929;-84
2023/02/08 10:35:12;;;;;;;;;;;4.00;62.00;;;2.81;46.42;102755.72;5029776;28;19929;-85
2023/02/08 10:37:42;;;;;;;;;;;4.00;59.50;;;2.82;45.61;102746.84;5038122;28;19935;-85
2023/02/08 10:40:22;;;;;;;;;;;4.00;58.50;;;2.83;44.48;102740.63;5024959;28;20408;-85
2023/02/08 10:42:55;;;;;;;;;;;4.00;57.10;;;2.88;43.75;102735.91;5020144;28;19929;-85
2023/02/08 10:45:26;;;;;;;;;;;4.00;56.60;;;2.92;43.64;102729.47;5023059;28;20339;-84
2023/02/08 10:47:56;;;;;;;;;;;4.10;57.10;;;2.94;44.68;102742.56;5022058;28;19932;-84
2023/02/08 10:50:29;;;;;;;;;;;4.10;58.00;;;2.98;43.39;102741.41;5023387;28;19961;-84
2023/02/08 10:52:56;;;;;;;;;;;4.10;56.60;;;2.97;43.32;102740.53;5030932;28;19936;-85
2023/02/08 10:55:23;;;;;;;;;;;4.10;56.30;;;2.95;42.46;102733.69;5038980;28;19929;-83
2023/02/08 10:57:54;;;;;;;;;;;4.10;55.30;;;2.98;42.56;102736.97;5019979;28;19947;-82
2023/02/08 11:00:24;;;;;;;;;;;4.10;55.20;;;3.01;42.13;102735.91;5024688;28;20172;-86
2023/02/08 11:02:51;;;;;;;;;;;4.20;54.30;;;3.04;41.43;102727.78;5022169;28;20388;-84
2023/02/08 11:05:22;;;;;;;;;;;4.20;53.20;;;3.09;41.29;102725.69;5025723;28;19936;-81
2023/02/08 11:08:04;;;;;;;;;;;4.20;52.90;;;3.06;40.29;102726.72;5026730;28;20004;-80
2023/02/08 11:10:31;;;;;;;;;;;4.20;52.20;;;3.12;41.27;102720.19;5031642;28;20358;-81
2023/02/08 11:13:00;;;;;;;;;;;4.20;52.50;;;3.18;41.29;102727.69;5023303;28;19930;-79
2023/02/08 11:15:31;;;;;;;;;;;4.30;52.80;;;3.20;40.69;102717.03;5028071;28;19929;-80
2023/02/08 11:18:00;;;;;;;;;;;4.30;52.40;;;3.22;39.66;102712.47;5023029;28;20407;-81
2023/02/08 11:20:35;;;;;;;;;;;4.30;50.40;;;3.26;40.03;102706.88;5026701;28;19969;-87
2023/02/08 11:23:03;;;;;;;;;;;4.40;51.20;;;3.28;39.82;102698.88;5016248;28;19930;-79
2023/02/08 11:25:32;;;;;;;;;;;4.40;50.40;;;3.30;39.01;102694.31;5016513;28;20594;-79
2023/02/08 11:28:00;;;;;;;;;;;4.40;49.20;;;3.30;38.56;102691.69;5020118;28;19939;-79
2023/02/08 11:30:27;;;;;;;;;;;4.40;50.40;;;3.34;38.24;102682.59;5026631;28;19928;-79
2023/02/08 11:33:17;;;;;;;;;;;4.50;49.40;;;3.39;38.23;102677.84;5037725;28;19933;-79
2023/02/08 11:35:56;;;;;;;;;;;4.50;49.50;;;3.41;37.89;102673.28;5027420;28;20469;-79
2023/02/08 11:38:26;;;;;;;;;;;4.50;49.50;;;3.46;38.10;102675.59;5026263;28;19933;-79
2023/02/08 11:40:55;;;;;;;;;;;4.50;49.10;;;3.46;37.23;102671.16;5020286;28;20012;-79
2023/02/08 11:43:23;;;;;;;;;;;4.70;48.70;;;3.50;37.49;102674.44;5010958;28;19988;-79
2023/02/08 11:45:50;;;;;;;;;;;4.60;48.40;;;3.57;37.85;102676.53;5030647;28;20327;-79
2023/02/08 11:48:23;;;;;;;;;;;4.60;48.80;;;3.57;36.88;102668.63;5031368;28;19933;-81
2023/02/08 11:50:57;;;;;;;;;;;4.70;48.40;;;3.66;36.71;102671.53;5025717;28;19929;-79
2023/02/08 11:53:28;;;;;;;;;;;4.70;47.50;;;3.66;36.48;102671.53;5028467;28;20011;-78
2023/02/08 11:56:06;;;;;;;;;;;4.80;47.40;;;3.69;36.84;102661.59;5033082;28;19929;-78
2023/02/08 11:58:33;;;;;;;;;;;4.80;47.60;;;3.72;36.42;102665.81;5023483;28;19930;-78
2023/02/08 12:01:02;;;;;;;;;;;4.80;47.10;;;3.73;36.67;102663.06;5034743;28;19928;-79
2023/02/08 12:03:32;;;;;;;;;;;4.80;47.10;;;3.76;36.15;102659.38;5045145;28;19935;-79
2023/02/08 12:06:17;;;;;;;;;;;4.90;46.40;;;3.79;35.84;102646.75;5028501;28;20027;-79
2023/02/08 12:08:53;;;;;;;;;;;4.90;46.00;;;3.83;36.60;102647.38;5022480;28;19936;-79
2023/02/08 12:11:25;;;;;;;;;;;4.90;47.00;;;3.87;35.75;102656.78;5049032;28;19950;-78
2023/02/08 12:14:14;;;;;;;;;;;4.90;45.90;;;3.94;35.00;102652.72;5039070;28;20035;-78
2023/02/08 12:16:56;;;;;;;;;;;5.00;44.80;;;3.97;34.30;102644.56;5026506;28;20019;-78
2023/02/08 12:19:34;;;;;;;;;;;5.00;44.10;;;3.99;34.74;102640.00;5029599;28;19929;-79
2023/02/08 12:22:06;;;;;;;;;;;5.00;44.30;;;3.96;35.08;102632.34;5030333;28;19929;-78
2023/02/08 12:24:43;;;;;;;;;;;5.10;45.00;;;3.98;34.85;102635.69;5027337;28;19929;-79
2023/02/08 12:27:26;;;;;;;;;;;5.10;44.30;;;4.01;34.23;102630.19;5024089;28;19952;-78
2023/02/08 12:29:59;;;;;;;;;;;5.10;44.10;;;4.01;33.99;102627.56;5037028;28;20688;-78
2023/02/08 12:32:38;;;;;;;;;;;5.10;43.50;;;4.04;33.53;102619.38;5041063;28;19936;-78